首页
METAR-TAF:

METAR-TAF

机场 :

阿伯丁, 马里兰州, 美国

纬度: 39-28N, 经度: 076-10W, 海拔: 18米

当前天气观测

该预报发布于30分钟前的18:13 UTC
风速6节,风向
温度 9°C
湿度 100%
气压 1016 hPa
能見度: 9.7公里
阴天层高于400英尺
轻雾

METAR: KAPG 281813Z AUTO 09006KT 6SM BR OVC004 09/09 A3001 RMK AO2 RAE13 SLP166 PNO TSNO $

时间: 14:43 (18:43 UTC)


TAF: 丢失

超过4000个机场的气象观测和天气预报(METAR&TAF报告)。

可查询的气象台以黄色和红色小点在地图上表示。

将鼠标移到小点上方,可查看气象台名称。

然后点击查看天气观测和预报。

如需切换地图:点击带黑十字的绿色按钮放大地图;点击带横线的绿色按钮缩小地图;或者点击绿色箭头查看邻近地区的地图。


METAR-TAF: